Terminal Aerodrome Forecast
Issued by NWS

Current Version | Previous Version | Text Only | Print | Product List | Glossary Off
Versions: 1 2 3 4 5 6 7 8 9 10 11 12 13 14 15 16 17 18 19

136
FTUS41 KPBZ 100407 AAA
TAFMGW
TAF AMD
KMGW 100407Z 1004/1024 20004KT P6SM -SN OVC040
      TEMPO 1004/1006 5SM -SN OVC025
     FM100600 27010KT P6SM VCSH OVC015
     FM101300 26010G15KT P6SM VCSH OVC020
     FM101700 26014G18KT P6SM BKN025
     FM102200 25013G18KT P6SM BKN045=

USA.gov is the U.S. government's official web portal to all federal, state and local government web resources and services.